Time;durP1;ratioP1;P1;durP2;ratioP2;P2;SDS_P1;SDS_P2;PMS_P1;PMS_P2;Temp;Humidity;BMP_temperature;BMP_pressure;BME280_temperature;BME280_humidity;BME280_pressure;Samples;Min_cycle;Max_cycle;Signal;HPM_P1;HPM_P2
2022/11/08 00:03:47;;;;;;;14.90;3.15;;;11.50;99.90;;;;;;5049985;28;20102;-38
2022/11/08 00:14:26;;;;;;;12.48;2.90;;;11.60;99.90;;;;;;5049488;28;20103;-38
2022/11/08 00:16:52;;;;;;;7.20;2.33;;;11.60;99.90;;;;;;5049268;28;20049;-38
2022/11/08 00:19:17;;;;;;;16.50;2.40;;;11.80;99.90;;;;;;5049031;28;20052;-38
2022/11/08 00:21:43;;;;;;;13.13;2.78;;;11.60;99.90;;;;;;5048952;28;20044;-37
2022/11/08 00:24:09;;;;;;;11.50;2.13;;;11.60;99.90;;;;;;5048990;28;20128;-38
2022/11/08 00:26:34;;;;;;;10.82;2.92;;;11.60;99.90;;;;;;5049015;28;20060;-38
2022/11/08 00:29:00;;;;;;;11.48;2.20;;;12.30;99.90;;;;;;5049135;28;20099;-38
2022/11/08 00:31:26;;;;;;;5.38;1.60;;;11.60;99.90;;;;;;5048829;28;20450;-38
2022/11/08 00:33:51;;;;;;;9.77;1.92;;;11.60;99.90;;;;;;5048013;28;20127;-38
2022/11/08 00:36:17;;;;;;;10.65;1.63;;;11.60;99.90;;;;;;5048324;28;20047;-38
2022/11/08 00:38:43;;;;;;;11.20;2.13;;;11.60;99.90;;;;;;5048633;28;20147;-38
2022/11/08 00:41:10;;;;;;;12.02;1.92;;;11.60;99.90;;;;;;5048536;28;20041;-38
2022/11/08 00:43:35;;;;;;;20.55;3.25;;;11.60;99.90;;;;;;5048199;28;20045;-38
2022/11/08 00:46:01;;;;;;;11.65;1.80;;;11.80;99.90;;;;;;5048219;28;20048;-38
2022/11/08 00:48:27;;;;;;;10.63;1.77;;;11.50;99.90;;;;;;5048707;28;20119;-37
2022/11/08 00:50:52;;;;;;;8.57;2.10;;;11.60;99.90;;;;;;5048772;28;20076;-38
2022/11/08 00:53:18;;;;;;;10.52;1.60;;;11.60;99.90;;;;;;5048448;28;20044;-38
2022/11/08 00:55:43;;;;;;;11.35;1.88;;;11.60;99.90;;;;;;5048331;28;20124;-38
2022/11/08 00:58:09;;;;;;;7.90;1.67;;;11.60;99.90;;;;;;5048311;28;20045;-38
2022/11/08 01:00:35;;;;;;;8.27;1.50;;;11.50;99.90;;;;;;5048407;28;20045;-38
2022/11/08 01:03:19;;;;;;;14.02;2.15;;;11.50;99.90;;;;;;5048585;28;20044;-38
2022/11/08 01:05:45;;;;;;;12.15;2.08;;;11.70;99.90;;;;;;5048634;28;20048;-38
2022/11/08 01:08:12;;;;;;;10.07;2.30;;;11.60;99.90;;;;;;5048290;28;20092;-38
2022/11/08 01:10:45;;;;;;;9.05;2.00;;;11.30;99.90;;;;;;5048153;28;20051;-37
2022/11/08 01:13:11;;;;;;;13.30;1.92;;;11.20;99.90;;;;;;5048766;28;20053;-38
2022/11/08 01:15:40;;;;;;;10.13;1.83;;;11.10;99.90;;;;;;5048592;28;20044;-38
2022/11/08 01:18:08;;;;;;;11.45;1.55;;;11.70;99.90;;;;;;5048367;28;20133;-38
2022/11/08 01:20:40;;;;;;;11.90;2.15;;;11.70;99.90;;;;;;5047959;28;20037;-38
2022/11/08 01:23:05;;;;;;;;;;;10.90;99.90;;;;;;5048815;28;20048;-38
2022/11/08 01:25:36;;;;;;;9.75;3.15;;;10.90;99.90;;;;;;5048080;28;20628;-38
2022/11/08 01:28:01;;;;;;;11.32;2.08;;;10.80;99.90;;;;;;5048368;28;20060;-37
2022/11/08 01:30:27;;;;;;;12.95;2.35;;;11.60;99.90;;;;;;5047965;28;20052;-37
2022/11/08 01:32:52;;;;;;;11.27;2.58;;;10.70;99.90;;;;;;5047924;28;20123;-38
2022/11/08 01:35:18;;;;;;;12.20;2.08;;;10.70;99.90;;;;;;5047338;28;20459;-38
2022/11/08 01:37:44;;;;;;;8.13;1.80;;;10.60;99.90;;;;;;5047222;28;20043;-38
2022/11/08 01:40:10;;;;;;;11.05;2.08;;;10.70;99.90;;;;;;5047437;28;20041;-38
2022/11/08 01:42:36;;;;;;;13.52;2.58;;;10.60;99.90;;;;;;5047169;28;20052;-37
2022/11/08 01:45:05;;;;;;;9.38;2.53;;;10.50;99.90;;;;;;5046578;28;20041;-38
2022/11/08 01:47:30;;;;;;;9.13;1.90;;;10.50;99.90;;;;;;5046542;28;20464;-38
2022/11/08 01:50:13;;;;;;;8.45;1.80;;;10.50;99.90;;;;;;5047175;28;20152;-38
2022/11/08 01:52:43;;;;;;;14.65;2.38;;;10.40;99.90;;;;;;5047428;28;20453;-38
2022/11/08 01:55:24;;;;;;;17.63;2.22;;;10.30;99.90;;;;;;5047667;28;20041;-38
2022/11/08 01:58:01;;;;;;;15.13;2.25;;;10.40;99.90;;;;;;5048092;28;20060;-38
2022/11/08 02:00:27;;;;;;;13.63;2.90;;;10.40;99.90;;;;;;5046459;28;20572;-38
2022/11/08 02:02:59;;;;;;;9.63;1.83;;;10.50;99.90;;;;;;5047353;28;20045;-38
2022/11/08 02:05:26;;;;;;;10.43;2.47;;;10.50;99.90;;;;;;5047756;28;20033;-38
2022/11/08 02:07:54;;;;;;;6.53;2.28;;;10.50;99.90;;;;;;5047090;28;20127;-38
2022/11/08 02:10:23;;;;;;;13.60;2.40;;;10.50;99.90;;;;;;5047759;28;20055;-37
2022/11/08 02:12:50;;;;;;;11.18;2.45;;;10.40;99.90;;;;;;5047133;28;20036;-38
2022/11/08 02:15:19;;;;;;;15.13;2.75;;;10.30;99.90;;;;;;5047074;28;20148;-38
2022/11/08 02:17:45;;;;;;;12.48;2.78;;;10.40;99.90;;;;;;5045655;28;20061;-38
2022/11/08 02:20:10;;;;;;;13.52;2.15;;;11.10;99.90;;;;;;5047387;28;20041;-38
2022/11/08 02:22:44;;;;;;;10.25;1.98;;;10.40;99.90;;;;;;5047412;28;20052;-37
2022/11/08 02:25:11;;;;;;;9.32;2.15;;;10.20;99.90;;;;;;5047556;28;20039;-38
2022/11/08 02:27:36;;;;;;;8.70;1.98;;;10.20;99.90;;;;;;5047301;28;20120;-37
2022/11/08 02:30:02;;;;;;;14.70;3.13;;;10.20;99.90;;;;;;5047277;28;20544;-38
2022/11/08 02:32:37;;;;;;;10.65;2.08;;;10.30;99.90;;;;;;5045899;28;20759;-37
2022/11/08 02:35:05;;;;;;;13.70;2.72;;;10.30;99.90;;;;;;5046612;28;20124;-38
2022/11/08 02:37:31;;;;;;;14.27;2.75;;;10.20;99.90;;;;;;5046727;28;20490;-38
2022/11/08 02:39:57;;;;;;;13.63;2.50;;;10.60;99.90;;;;;;5046827;28;20049;-37
2022/11/08 02:42:23;;;;;;;12.23;2.50;;;10.20;99.90;;;;;;5047126;28;20037;-37
2022/11/08 02:44:48;;;;;;;10.35;2.22;;;10.10;99.90;;;;;;5046312;28;20148;-37
2022/11/08 02:47:14;;;;;;;12.65;2.42;;;10.10;99.90;;;;;;5047264;28;20053;-38
2022/11/08 02:49:40;;;;;;;9.00;2.30;;;10.10;99.90;;;;;;5046887;28;20045;-38
2022/11/08 02:52:06;;;;;;;9.98;2.50;;;10.00;99.90;;;;;;5047149;28;20041;-37
2022/11/08 02:54:31;;;;;;;12.52;2.53;;;10.00;99.90;;;;;;5046863;28;20118;-38
2022/11/08 02:56:57;;;;;;;12.85;2.30;;;10.00;99.90;;;;;;5049790;28;20048;-38
2022/11/08 02:59:23;;;;;;;11.85;2.22;;;9.90;99.90;;;;;;5050278;28;20041;-38
2022/11/08 03:01:48;;;;;;;18.35;3.33;;;10.60;99.90;;;;;;5050067;28;20102;-38
2022/11/08 03:04:14;;;;;;;6.80;2.47;;;9.90;99.90;;;;;;5050257;28;20044;-37
2022/11/08 03:06:39;;;;;;;11.82;3.15;;;9.90;99.90;;;;;;5050007;28;20064;-37
2022/11/08 03:09:05;;;;;;;11.13;2.97;;;10.20;99.90;;;;;;5050728;28;20060;-38
2022/11/08 03:11:31;;;;;;;10.35;2.60;;;10.60;99.90;;;;;;5050444;28;20048;-37
2022/11/08 03:13:57;;;;;;;12.20;2.65;;;9.90;99.90;;;;;;5050183;28;20041;-37
2022/11/08 03:16:22;;;;;;;10.82;2.45;;;10.10;99.90;;;;;;5050083;28;20398;-37
2022/11/08 03:18:48;;;;;;;13.23;2.65;;;9.80;99.90;;;;;;5050063;28;20044;-37
2022/11/08 03:21:14;;;;;;;13.85;2.95;;;9.80;99.90;;;;;;5050053;28;20058;-38
2022/11/08 03:23:40;;;;;;;9.25;2.75;;;9.70;99.90;;;;;;5050274;28;20049;-37
2022/11/08 03:26:05;;;;;;;16.25;3.90;;;10.50;99.90;;;;;;5050526;28;20037;-37
2022/11/08 03:28:31;;;;;;;14.25;3.08;;;9.90;99.90;;;;;;5050691;28;20102;-37
2022/11/08 03:30:57;;;;;;;10.70;2.55;;;9.70;99.90;;;;;;5032641;28;20041;-37
2022/11/08 03:33:22;;;;;;;13.65;3.22;;;9.70;99.90;;;;;;5050917;28;20043;-38
2022/11/08 03:35:49;;;;;;;12.95;2.72;;;7.40;99.90;;;;;;5050063;28;20466;-38
2022/11/08 03:38:15;;;;;;;10.40;3.22;;;9.70;99.90;;;;;;5050232;28;20529;-37
2022/11/08 03:40:41;;;;;;;12.45;2.90;;;9.60;99.90;;;;;;5050434;28;20044;-37
2022/11/08 03:43:07;;;;;;;9.27;3.33;;;10.60;99.90;;;;;;5050046;28;20433;-37
2022/11/08 03:45:32;;;;;;;10.00;2.90;;;9.70;99.90;;;;;;5050101;28;20041;-37
2022/11/08 03:47:58;;;;;;;19.80;3.08;;;9.60;99.90;;;;;;5049964;28;20045;-37
2022/11/08 03:50:24;;;;;;;13.95;3.33;;;9.60;99.90;;;;;;5049582;28;20041;-38
2022/11/08 03:52:51;;;;;;;8.52;2.38;;;9.60;99.90;;;;;;5049654;28;20037;-38
2022/11/08 03:55:19;;;;;;;9.40;2.78;;;9.60;99.90;;;;;;5049897;28;20581;-37
2022/11/08 03:57:47;;;;;;;14.70;2.90;;;9.60;99.90;;;;;;5049666;28;20092;-38
2022/11/08 04:00:14;;;;;;;14.60;2.55;;;9.80;99.90;;;;;;5049847;28;20040;-38
2022/11/08 04:02:40;;;;;;;11.77;2.40;;;9.60;99.90;;;;;;5049577;28;20044;-38
2022/11/08 04:05:08;;;;;;;8.63;2.47;;;9.60;99.90;;;;;;5049140;28;20386;-37
2022/11/08 04:07:36;;;;;;;14.85;2.78;;;9.60;99.90;;;;;;5048867;28;20180;-37
2022/11/08 04:10:03;;;;;;;14.00;3.03;;;9.50;99.90;;;;;;5049024;28;20045;-37
2022/11/08 04:15:15;;;;;;;9.00;2.03;;;9.50;99.90;;;;;;5049338;28;20060;-37
2022/11/08 04:23:17;;;;;;;8.40;2.50;;;9.50;99.90;;;;;;5049111;28;20045;-37
2022/11/08 04:25:43;;;;;;;13.23;2.65;;;9.50;99.90;;;;;;5049055;28;20040;-37
2022/11/08 04:28:09;;;;;;;13.05;3.65;;;9.50;99.90;;;;;;5048984;28;20399;-37
2022/11/08 04:30:35;;;;;;;10.48;2.72;;;10.10;99.90;;;;;;5048726;28;20095;-37
2022/11/08 04:33:03;;;;;;;9.50;2.55;;;9.90;99.90;;;;;;5049149;28;20037;-37
2022/11/08 04:35:29;;;;;;;14.00;2.67;;;9.40;99.90;;;;;;5049519;28;20049;-37
2022/11/08 04:37:59;;;;;;;11.70;2.33;;;10.00;99.90;;;;;;5049033;28;20044;-37
2022/11/08 04:40:25;;;;;;;8.65;2.55;;;10.30;99.90;;;;;;5049042;28;20490;-38
2022/11/08 04:42:51;;;;;;;10.73;2.22;;;9.40;99.90;;;;;;5048398;28;20132;-38
2022/11/08 04:45:16;;;;;;;13.65;2.78;;;9.30;99.90;;;;;;5048585;28;20426;-37
2022/11/08 04:47:45;;;;;;;13.95;3.00;;;9.30;99.90;;;;;;5048301;28;20124;-37
2022/11/08 04:50:11;;;;;;;11.43;2.40;;;9.30;99.90;;;;;;5048388;28;20128;-37
2022/11/08 04:52:37;;;;;;;11.93;2.42;;;9.30;99.90;;;;;;5048742;28;20125;-37
2022/11/08 04:55:02;;;;;;;12.80;2.55;;;9.90;99.90;;;;;;5048966;28;20045;-37
2022/11/08 04:57:28;;;;;;;11.88;3.05;;;9.40;99.90;;;;;;5048679;28;20132;-37
2022/11/08 04:59:54;;;;;;;10.38;2.88;;;9.40;99.90;;;;;;5048357;28;20051;-37
2022/11/08 05:02:19;;;;;;;11.43;2.53;;;9.30;99.90;;;;;;5048162;28;20052;-37
2022/11/08 05:04:45;;;;;;;7.00;2.13;;;10.30;99.90;;;;;;5046169;28;20045;-42
2022/11/08 05:07:11;;;;;;;7.20;2.42;;;9.40;99.90;;;;;;5040462;28;20136;-45
2022/11/08 05:09:36;;;;;;;9.10;2.80;;;9.40;99.90;;;;;;5044943;28;20509;-42
2022/11/08 05:12:02;;;;;;;10.05;2.20;;;9.30;99.90;;;;;;5046924;28;20049;-44
2022/11/08 05:14:28;;;;;;;9.57;2.47;;;9.40;99.90;;;;;;5045365;28;20059;-43
2022/11/08 05:16:53;;;;;;;11.02;2.30;;;9.60;99.90;;;;;;5046540;28;20045;-45
2022/11/08 05:23:22;;;;;;;9.13;2.25;;;9.20;99.90;;;;;;5046189;28;20051;-56
2022/11/08 05:24:49;;;;;;;9.35;2.78;;;9.70;99.90;;;;;;5046704;28;20106;-36
2022/11/08 05:27:14;;;;;;;11.57;2.20;;;9.30;99.90;;;;;;5047565;28;20049;-36
2022/11/08 05:29:40;;;;;;;10.07;2.00;;;9.20;99.90;;;;;;5048128;28;20124;-36
2022/11/08 05:32:06;;;;;;;10.77;3.38;;;10.00;99.90;;;;;;5048025;28;20478;-36
2022/11/08 05:34:31;;;;;;;12.25;3.13;;;10.10;99.90;;;;;;5047909;28;20486;-36
2022/11/08 05:36:57;;;;;;;6.65;3.22;;;9.20;99.90;;;;;;5047450;28;20055;-36
2022/11/08 05:39:23;;;;;;;8.93;3.53;;;9.20;99.90;;;;;;5046034;28;20041;-36
2022/11/08 05:41:48;;;;;;;11.45;2.42;;;9.70;99.90;;;;;;5047506;28;20037;-37
2022/11/08 05:44:14;;;;;;;8.25;2.00;;;9.10;99.90;;;;;;5047481;28;20037;-36
2022/11/08 05:46:39;;;;;;;11.68;3.03;;;9.10;99.90;;;;;;5047597;28;20047;-36
2022/11/08 05:49:05;;;;;;;13.63;2.75;;;9.90;99.90;;;;;;5047209;28;20048;-36
2022/11/08 05:51:31;;;;;;;11.82;2.60;;;9.00;99.90;;;;;;5047307;28;20526;-36
2022/11/08 05:53:56;;;;;;;8.32;2.50;;;9.10;99.90;;;;;;5047214;28;20134;-36
2022/11/08 05:56:22;;;;;;;9.65;3.00;;;9.00;99.90;;;;;;5046849;28;20052;-36
2022/11/08 05:58:48;;;;;;;10.57;3.03;;;9.00;99.90;;;;;;5047492;28;20389;-36
2022/11/08 06:01:18;;;;;;;9.70;2.45;;;9.00;99.90;;;;;;5047010;28;20123;-36
2022/11/08 06:03:46;;;;;;;9.48;3.08;;;9.00;99.90;;;;;;5046722;28;20048;-36
2022/11/08 06:06:16;;;;;;;11.68;3.33;;;9.00;99.90;;;;;;5046442;28;20048;-36
2022/11/08 06:08:43;;;;;;;10.13;2.88;;;8.90;99.90;;;;;;5046447;28;20069;-36
2022/11/08 06:11:14;;;;;;;11.00;3.00;;;8.90;99.90;;;;;;5046628;28;20045;-36
2022/11/08 06:13:39;;;;;;;8.38;3.08;;;8.90;99.90;;;;;;5046982;28;20045;-36
2022/11/08 06:16:08;;;;;;;11.18;3.50;;;8.70;99.90;;;;;;5047014;28;20107;-36
2022/11/08 06:18:34;;;;;;;10.57;3.15;;;8.90;99.90;;;;;;5046462;28;20048;-36
2022/11/08 06:21:01;;;;;;;13.13;3.15;;;8.80;99.90;;;;;;5047073;28;20109;-36
2022/11/08 06:23:27;;;;;;;10.68;2.78;;;9.00;99.90;;;;;;5046716;28;20055;-36
2022/11/08 06:25:53;;;;;;;14.18;3.35;;;9.70;99.90;;;;;;5046710;28;20079;-36
2022/11/08 06:28:19;;;;;;;11.57;4.13;;;8.80;99.90;;;;;;5046492;28;20044;-36
2022/11/08 06:30:45;;;;;;;13.65;3.92;;;9.50;99.90;;;;;;5047805;28;20036;-36
2022/11/08 06:33:11;;;;;;;14.85;4.53;;;8.50;99.90;;;;;;5050029;28;20049;-36
2022/11/08 06:35:37;;;;;;;14.13;3.63;;;8.60;99.90;;;;;;5049707;28;20087;-36
2022/11/08 06:38:03;;;;;;;14.13;4.18;;;9.40;99.90;;;;;;5050063;28;20049;-36
2022/11/08 06:40:31;;;;;;;11.27;4.07;;;8.80;99.90;;;;;;5050034;28;20454;-36
2022/11/08 06:42:57;;;;;;;8.80;3.38;;;8.80;99.90;;;;;;5048285;28;20407;-36
2022/11/08 06:45:24;;;;;;;10.63;4.32;;;9.70;99.90;;;;;;5050355;28;20099;-36
2022/11/08 06:47:59;;;;;;;10.48;4.05;;;9.00;99.90;;;;;;5049943;28;20532;-36
2022/11/08 06:50:26;;;;;;;7.78;3.55;;;8.70;99.90;;;;;;5050235;28;20049;-36
2022/11/08 06:52:56;;;;;;;11.07;4.70;;;8.80;99.90;;;;;;5050315;28;20063;-36
2022/11/08 06:55:21;;;;;;;14.73;4.22;;;9.00;99.90;;;;;;5049585;28;20498;-36
2022/11/08 06:57:47;;;;;;;10.77;3.53;;;8.70;99.90;;;;;;5049804;28;20098;-36
2022/11/08 07:00:14;;;;;;;11.10;4.30;;;9.00;99.90;;;;;;5049854;28;20052;-36
2022/11/08 07:02:40;;;;;;;9.82;3.13;;;8.90;99.90;;;;;;5049827;28;20559;-36
2022/11/08 07:05:05;;;;;;;10.20;3.65;;;9.10;99.90;;;;;;5050155;28;20128;-36
2022/11/08 07:07:31;;;;;;;10.57;3.72;;;9.00;99.90;;;;;;5049165;28;20067;-36
2022/11/08 07:09:57;;;;;;;7.40;3.15;;;9.20;99.90;;;;;;5050139;28;20049;-36
2022/11/08 07:12:22;;;;;;;9.60;3.40;;;9.00;99.90;;;;;;5049423;28;20506;-37
2022/11/08 07:14:48;;;;;;;10.38;3.25;;;9.30;99.90;;;;;;5049572;28;20073;-36
2022/11/08 07:17:14;;;;;;;10.02;3.15;;;9.90;99.90;;;;;;5049366;28;20052;-36
2022/11/08 07:19:40;;;;;;;8.65;3.08;;;10.00;99.90;;;;;;5049293;28;20600;-36
2022/11/08 07:22:06;;;;;;;9.93;2.72;;;9.30;99.90;;;;;;5049924;28;20040;-36
2022/11/08 07:24:31;;;;;;;7.03;2.97;;;9.40;99.90;;;;;;5049687;28;20123;-36
2022/11/08 07:26:57;;;;;;;8.93;3.15;;;9.30;99.90;;;;;;5049517;28;20049;-36
2022/11/08 07:29:23;;;;;;;9.15;2.42;;;9.40;99.90;;;;;;5049314;28;20445;-36
2022/11/08 07:31:48;;;;;;;7.32;2.40;;;9.60;99.90;;;;;;5049286;28;20510;-36
2022/11/08 07:34:16;;;;;;;10.60;2.10;;;9.60;99.90;;;;;;5048599;28;20080;-36
2022/11/08 07:36:42;;;;;;;5.07;1.60;;;9.60;99.90;;;;;;5048822;28;20045;-36
2022/11/08 07:39:08;;;;;;;7.82;2.88;;;9.80;99.90;;;;;;5049068;28;20079;-36
2022/11/08 07:41:33;;;;;;;6.25;1.90;;;9.70;99.90;;;;;;5048559;28;20406;-36
2022/11/08 07:43:59;;;;;;;9.38;2.10;;;9.80;99.90;;;;;;5049033;28;20043;-36
2022/11/08 07:46:25;;;;;;;8.25;1.95;;;9.80;99.90;;;;;;5048883;28;20498;-36
2022/11/08 07:48:50;;;;;;;5.00;1.25;;;9.80;99.90;;;;;;5048938;28;20106;-36
2022/11/08 07:51:16;;;;;;;6.40;1.63;;;10.30;99.90;;;;;;5049233;28;20041;-37
2022/11/08 07:53:43;;;;;;;12.10;1.95;;;9.70;99.90;;;;;;5048742;28;20041;-36
2022/11/08 07:56:09;;;;;;;8.10;1.08;;;9.90;99.90;;;;;;5048861;28;20178;-36
2022/11/08 07:58:35;;;;;;;5.75;1.45;;;10.00;99.90;;;;;;5048564;28;20124;-36
2022/11/08 08:01:02;;;;;;;8.18;1.13;;;8.60;99.90;;;;;;5048975;28;20049;-37
2022/11/08 08:03:28;;;;;;;7.60;1.88;;;10.50;99.90;;;;;;5048452;28;20048;-36
2022/11/08 08:05:54;;;;;;;11.98;1.40;;;10.00;99.90;;;;;;5048782;28;20037;-36
2022/11/08 08:08:20;;;;;;;6.78;1.23;;;10.10;99.90;;;;;;5048452;28;20525;-36
2022/11/08 08:10:46;;;;;;;7.80;1.20;;;10.40;99.90;;;;;;5048748;28;20059;-36
2022/11/08 08:13:12;;;;;;;7.78;1.77;;;10.40;99.90;;;;;;5048729;28;20044;-37
2022/11/08 08:15:38;;;;;;;4.07;1.23;;;11.10;99.90;;;;;;5048135;28;20045;-36
2022/11/08 08:18:06;;;;;;;5.97;1.10;;;10.60;99.90;;;;;;5048954;28;20049;-36
2022/11/08 08:20:32;;;;;;;4.45;1.10;;;10.70;99.90;;;;;;5048491;28;20040;-38
2022/11/08 08:22:58;;;;;;;7.50;1.13;;;10.80;99.90;;;;;;5049162;28;20037;-38
2022/11/08 08:25:25;;;;;;;4.00;1.00;;;12.30;99.90;;;;;;5048878;28;20041;-38
2022/11/08 08:27:54;;;;;;;4.70;1.05;;;11.40;99.90;;;;;;5048830;28;20052;-48
2022/11/08 08:30:20;;;;;;;4.55;1.20;;;11.20;99.90;;;;;;5048770;28;20052;-47
2022/11/08 08:32:47;;;;;;;3.13;0.82;;;11.40;99.90;;;;;;5048582;28;20168;-47
2022/11/08 08:35:13;;;;;;;6.15;1.38;;;11.30;99.90;;;;;;5048279;28;20044;-47
2022/11/08 08:37:39;;;;;;;5.05;1.13;;;11.50;99.90;;;;;;5048565;28;20048;-48
2022/11/08 08:40:07;;;;;;;7.20;1.25;;;11.30;99.90;;;;;;5048953;28;20410;-47
2022/11/08 08:42:33;;;;;;;5.10;1.23;;;11.60;99.90;;;;;;5048702;28;20067;-48
2022/11/08 08:44:59;;;;;;;4.28;1.08;;;11.70;99.90;;;;;;5049029;28;20044;-47
2022/11/08 08:47:25;;;;;;;4.95;1.33;;;11.90;99.90;;;;;;5048780;28;20052;-47
2022/11/08 08:49:51;;;;;;;4.63;0.90;;;11.70;99.90;;;;;;5046562;28;20037;-47
2022/11/08 08:52:17;;;;;;;4.63;1.30;;;11.80;99.90;;;;;;5048532;28;20655;-48
2022/11/08 08:54:42;;;;;;;3.72;1.42;;;12.50;99.90;;;;;;5019060;28;20053;-47
2022/11/08 08:57:08;;;;;;;4.65;0.95;;;11.80;99.90;;;;;;5025593;28;20052;-50
2022/11/08 08:59:34;;;;;;;3.40;0.95;;;11.90;99.90;;;;;;5025773;28;20735;-48
2022/11/08 09:01:59;;;;;;;5.25;1.00;;;12.00;99.90;;;;;;5025906;28;20120;-39
2022/11/08 09:04:27;;;;;;;4.38;0.85;;;12.30;99.90;;;;;;5024617;28;20092;-39
2022/11/08 09:06:53;;;;;;;6.22;1.55;;;12.00;99.90;;;;;;5024694;28;20057;-39
2022/11/08 09:09:20;;;;;;;5.43;1.20;;;12.10;99.90;;;;;;5025272;28;20498;-39
2022/11/08 09:11:45;;;;;;;3.92;0.85;;;12.10;99.90;;;;;;5024797;28;20098;-39
2022/11/08 09:14:11;;;;;;;6.57;1.20;;;12.10;99.90;;;;;;5025135;28;20053;-39
2022/11/08 09:16:37;;;;;;;6.47;1.25;;;12.10;99.90;;;;;;5024606;28;20037;-39
2022/11/08 09:19:02;;;;;;;4.15;0.82;;;12.20;99.90;;;;;;5024759;28;20049;-39
2022/11/08 09:21:28;;;;;;;5.90;1.00;;;12.90;99.90;;;;;;5025181;28;20044;-39
2022/11/08 09:23:53;;;;;;;5.65;0.90;;;13.00;99.90;;;;;;5024815;28;20041;-39
2022/11/08 09:26:19;;;;;;;3.63;0.93;;;12.30;99.90;;;;;;5025113;28;20045;-39
2022/11/08 09:28:45;;;;;;;4.25;1.10;;;13.30;99.90;;;;;;5024664;28;20124;-39
2022/11/08 09:31:11;;;;;;;4.03;1.08;;;12.80;99.90;;;;;;5025734;28;20140;-39
2022/11/08 09:33:39;;;;;;;6.10;0.70;;;12.60;99.90;;;;;;5024637;28;20049;-39
2022/11/08 09:36:07;;;;;;;3.83;0.70;;;12.70;99.90;;;;;;5025516;28;20487;-39
2022/11/08 09:38:33;;;;;;;3.70;1.08;;;12.80;99.90;;;;;;5025218;28;20515;-39
2022/11/08 09:41:23;;;;;;;5.28;1.20;;;12.90;99.90;;;;;;5025034;28;20033;-39
2022/11/08 09:44:04;;;;;;;2.75;0.50;;;13.00;99.90;;;;;;5024941;28;20372;-39
2022/11/08 09:46:56;;;;;;;2.85;0.63;;;13.10;99.90;;;;;;5025218;28;20077;-39
2022/11/08 09:49:37;;;;;;;3.75;0.63;;;13.20;99.90;;;;;;5024958;28;20523;-37
2022/11/08 09:52:04;;;;;;;5.80;0.80;;;13.30;99.90;;;;;;5025022;28;20061;-37
2022/11/08 09:54:40;;;;;;;3.97;0.65;;;13.30;99.90;;;;;;5005114;28;20140;-37
2022/11/08 09:57:18;;;;;;;3.35;0.75;;;13.40;99.90;;;;;;5024839;28;20060;-37
2022/11/08 09:59:51;;;;;;;6.30;0.68;;;13.40;99.90;;;;;;5023332;28;20049;-36
2022/11/08 10:02:21;;;;;;;;;;;13.40;99.90;;;;;;5024936;28;20125;-37
2022/11/08 10:04:54;;;;;;;2.35;0.70;;;13.50;99.90;;;;;;5025655;28;19920;-37
2022/11/08 10:07:46;;;;;;;3.47;0.90;;;13.50;99.90;;;;;;5028495;28;20553;-37
2022/11/08 10:10:18;;;;;;;;;;;13.50;99.90;;;;;;5029458;28;20041;-37
2022/11/08 10:12:57;;;;;;;4.15;0.55;;;13.50;99.90;;;;;;5028296;28;19929;-36
2022/11/08 10:15:28;;;;;;;3.58;0.73;;;13.50;99.90;;;;;;5028153;28;20095;-37
2022/11/08 10:18:14;;;;;;;3.28;0.45;;;13.70;99.90;;;;;;5026699;28;20431;-37
2022/11/08 10:20:43;;;;;;;2.08;0.50;;;13.70;99.90;;;;;;5028207;28;20127;-37
2022/11/08 10:23:20;;;;;;;2.80;1.05;;;13.70;99.90;;;;;;5028683;28;20041;-37
2022/11/08 10:26:16;;;;;;;3.45;0.70;;;13.80;99.90;;;;;;5028473;28;20076;-37
2022/11/08 10:28:51;;;;;;;3.88;0.73;;;13.90;99.90;;;;;;5023590;28;20053;-37
2022/11/08 10:31:19;;;;;;;3.35;1.13;;;14.30;99.90;;;;;;5028898;28;20044;-37
2022/11/08 10:33:45;;;;;;;2.80;0.63;;;14.00;99.90;;;;;;5026399;28;20124;-37
2022/11/08 10:36:20;;;;;;;4.40;0.57;;;13.80;99.90;;;;;;5028542;28;20547;-37
2022/11/08 10:39:21;;;;;;;4.57;0.60;;;14.00;99.90;;;;;;5028114;28;20050;-37
2022/11/08 10:42:05;;;;;;;4.55;1.08;;;14.00;99.90;;;;;;5026614;28;20045;-37
2022/11/08 10:44:32;;;;;;;3.05;0.60;;;14.00;99.90;;;;;;5028332;28;20041;-37
2022/11/08 10:47:04;;;;;;;3.13;0.82;;;14.10;99.90;;;;;;5028453;28;20037;-47
2022/11/08 10:49:30;;;;;;;;;;;14.10;99.90;;;;;;5028797;28;20138;-48
2022/11/08 10:52:11;;;;;;;4.47;0.80;;;14.10;99.90;;;;;;5027978;28;19987;-45
2022/11/08 10:54:49;;;;;;;3.33;0.50;;;14.10;99.90;;;;;;5009055;28;20045;-46
2022/11/08 10:57:37;;;;;;;1.55;0.45;;;14.10;99.90;;;;;;5028020;28;20261;-45
2022/11/08 11:00:22;;;;;;;2.33;0.50;;;14.00;99.90;;;;;;5027967;28;20045;-47
2022/11/08 11:03:00;;;;;;;3.13;0.60;;;14.00;99.90;;;;;;5026914;28;20138;-46
2022/11/08 11:05:30;;;;;;;2.22;0.43;;;13.90;99.90;;;;;;5028030;28;20055;-46
2022/11/08 11:07:59;;;;;;;6.13;0.80;;;13.90;99.90;;;;;;5026851;28;20883;-45
2022/11/08 11:10:27;;;;;;;3.80;0.88;;;13.80;99.90;;;;;;5027816;28;20144;-46
2022/11/08 11:13:14;;;;;;;5.72;0.80;;;13.80;99.90;;;;;;5026180;28;20597;-45
2022/11/08 11:15:55;;;;;;;5.40;0.43;;;13.80;99.90;;;;;;5026564;28;20491;-47
2022/11/08 11:18:38;;;;;;;4.70;0.73;;;13.80;99.90;;;;;;5027241;28;20176;-47
2022/11/08 11:21:09;;;;;;;3.33;0.70;;;13.60;99.90;;;;;;5027094;28;20073;-47
2022/11/08 11:23:38;;;;;;;3.80;0.80;;;13.50;99.90;;;;;;5027772;28;20044;-47
2022/11/08 11:26:06;;;;;;;4.68;0.50;;;13.50;99.90;;;;;;5027425;28;20033;-47
2022/11/08 11:28:34;;;;;;;2.40;0.68;;;13.50;99.90;;;;;;5027477;28;20161;-48
2022/11/08 11:31:14;;;;;;;1.92;0.70;;;13.60;99.90;;;;;;5026766;28;20049;-47
2022/11/08 11:33:45;;;;;;;6.18;1.25;;;13.70;99.90;;;;;;5026898;28;20041;-39
2022/11/08 11:36:19;;;;;;;3.47;0.70;;;13.80;99.90;;;;;;5025966;28;20076;-39
2022/11/08 11:38:53;;;;;;;3.13;0.65;;;14.00;99.90;;;;;;5027648;28;20050;-39
2022/11/08 11:41:27;;;;;;;5.13;1.63;;;14.10;99.90;;;;;;5027377;28;20196;-39
2022/11/08 11:44:11;;;;;;;3.33;0.68;;;14.10;99.90;;;;;;5025321;28;20048;-39
2022/11/08 11:47:05;;;;;;;6.13;0.60;;;14.20;99.90;;;;;;5027094;28;20524;-39
2022/11/08 11:49:31;;;;;;;4.13;0.75;;;14.20;99.90;;;;;;5022622;28;20068;-39
2022/11/08 11:51:57;;;;;;;3.70;0.50;;;14.20;99.90;;;;;;5026727;28;20129;-39
2022/11/08 11:54:28;;;;;;;2.63;0.60;;;14.30;99.90;;;;;;5008467;28;20097;-39
2022/11/08 11:56:54;;;;;;;1.92;0.40;;;14.30;99.90;;;;;;5027308;28;20112;-39
2022/11/08 11:59:34;;;;;;;5.88;0.93;;;14.20;99.90;;;;;;5026876;28;20189;-40
2022/11/08 12:02:30;;;;;;;2.97;0.57;;;14.30;99.90;;;;;;5026615;28;20033;-39
2022/11/08 12:05:18;;;;;;;3.83;0.70;;;14.30;99.90;;;;;;5026313;28;20055;-39
2022/11/08 12:07:58;;;;;;;4.15;0.93;;;14.30;99.90;;;;;;5026523;28;20072;-39
2022/11/08 12:10:51;;;;;;;4.53;0.70;;;14.40;99.90;;;;;;5026295;28;20049;-39
2022/11/08 12:13:39;;;;;;;5.68;0.90;;;14.40;99.90;;;;;;5008581;28;20060;-39
2022/11/08 12:16:16;;;;;;;2.05;0.73;;;14.50;99.90;;;;;;5026207;28;20099;-39
2022/11/08 12:19:01;;;;;;;3.33;0.52;;;14.40;99.90;;;;;;5025402;28;20111;-38
2022/11/08 12:21:40;;;;;;;5.20;0.82;;;14.40;99.90;;;;;;5026711;28;20422;-37
2022/11/08 12:24:44;;;;;;;3.30;0.75;;;14.40;99.90;;;;;;5026592;28;20407;-37
2022/11/08 12:27:35;;;;;;;2.92;0.43;;;14.40;99.90;;;;;;5026328;28;20053;-37
2022/11/08 12:30:10;;;;;;;3.90;0.60;;;14.40;99.90;;;;;;5025982;28;20046;-37
2022/11/08 12:32:47;;;;;;;2.85;0.77;;;14.30;99.90;;;;;;5026159;28;20053;-38
2022/11/08 12:35:24;;;;;;;3.25;0.65;;;14.40;99.90;;;;;;5026370;28;20045;-38
2022/11/08 12:38:08;;;;;;;2.80;0.65;;;14.40;99.90;;;;;;5026305;28;20506;-37
2022/11/08 12:41:04;;;;;;;2.55;0.43;;;14.30;99.90;;;;;;5026480;28;20051;-37
2022/11/08 12:43:38;;;;;;;3.22;1.08;;;14.30;99.90;;;;;;5026606;28;20053;-38
2022/11/08 12:46:17;;;;;;;2.28;0.68;;;14.30;99.90;;;;;;5026374;28;20041;-37
2022/11/08 12:49:01;;;;;;;3.72;0.65;;;14.30;99.90;;;;;;5026560;28;20103;-37
2022/11/08 12:52:01;;;;;;;3.67;0.60;;;14.30;99.90;;;;;;5024785;28;20077;-37
2022/11/08 12:54:45;;;;;;;2.72;0.50;;;14.30;99.90;;;;;;5006862;28;20502;-37
2022/11/08 12:57:16;;;;;;;3.47;0.50;;;14.20;99.90;;;;;;5025564;28;20060;-37
2022/11/08 12:59:52;;;;;;;2.55;0.60;;;14.20;99.90;;;;;;5025899;28;20042;-37
2022/11/08 13:02:23;;;;;;;6.53;0.80;;;14.20;99.90;;;;;;5024928;28;20076;-37
2022/11/08 13:05:08;;;;;;;2.17;0.63;;;14.20;99.90;;;;;;5025376;28;20041;-37
2022/11/08 13:07:59;;;;;;;2.40;0.68;;;14.20;99.90;;;;;;5024907;28;20064;-37
2022/11/08 13:10:33;;;;;;;3.63;0.65;;;14.20;99.90;;;;;;5025115;28;20065;-37
2022/11/08 13:13:35;;;;;;;2.97;1.05;;;14.20;99.90;;;;;;5025313;28;20052;-37
2022/11/08 13:16:19;;;;;;;3.40;0.50;;;14.20;99.90;;;;;;5011692;28;20419;-38
2022/11/08 13:18:49;;;;;;;2.53;0.70;;;14.10;99.90;;;;;;5025517;28;20049;-38
2022/11/08 13:21:27;;;;;;;5.13;0.85;;;14.10;99.90;;;;;;5024969;28;20503;-37
2022/11/08 13:24:14;;;;;;;2.60;0.43;;;14.10;99.90;;;;;;5025540;28;20049;-37